Acampo, CA

9:44 PM PDT on September 02, 2014 (GMT -0700)
M2 Winery in Lodi Wine Country | Change Station
CLOSE
Current Station
Personal Weather Station
Location: Acampo, CA
Elevation: 43 ft
Nearby Weather Stations

Elev 43 ft 38.19 °N, 121.28 °W | Updated 3 seconds ago

Clear
Clear
65.7 °F
Feels Like 65.7 °F
N
1.0
Wind Variable Wind from North
Gusts 1.0 mph

Today
High -- | Low -- °F
--% Chance of Precip.
Yesterday
High -- | Low -- °F
Precip. -- in
6:35 AM 7:32 PM
First Quarter, 58% visible
Pressure 29.72 in
Visibility 10.0 miles
Clouds Clear
Dew Point 56 °F
Humidity 71%
Rainfall 0.00 in
Snow Depth Not available.
UV 0.0 out of 12
Pollen 8.60 out of 12
PM2.5 Good
Flu Activity Not available.
METAR KSCK 030355Z 35008KT 10SM CLR 23/13 A2972 RMK AO2 SLP064 T02330133

More Conditions Fewer Conditions

Pressure 29.72 in
Visibility 10.0 miles
Clouds Clear
Dew Point 56 °F
Humidity 71%
Rainfall 0.00 in
Snow Depth Not available.
UV 0.0 out of 12
Pollen 8.60 out of 12
PM2.5 Good
Flu Activity Not available.
METAR KSCK 030355Z 35008KT 10SM CLR 23/13 A2972 RMK AO2 SLP064 T02330133

More Conditions Fewer Conditions

10-Day Weather Forecast

Almanac

Astronomy

Sep. 02, 2014 Rise Set
Actual Time 6:35 AM PDT 7:32 PM PDT
Civil Twilight 6:08 AM PDT 7:59 PM PDT
Nautical Twilight 5:36 AM PDT 8:31 PM PDT
Astronomical Twilight 5:03 AM PDT 9:04 PM PDT
Moon 2:18 PM PDT (9/2) No Moon Set
Length of Visible Light 13h 51m
Length of Day
12h 57m
Tomorrow will be 2m 23s shorter.
First Quarter, 58% of the Moon is Illuminated
Sep 3
First Quarter
Sep 8
Full
Sep 15
Last Quarter
Sep 24
New
Oct 1
First Quarter

Yesterday's Extremes

State Highs State Lows

Community

WunderPhotos

Upload Photos

1,749,875 photos uploaded!

Nearby

Air Quality

  Air Quality AQ Index Pollutant
Yesterday Moderate
PM2.5
Yesterday Good
OZONE
Current Good
PM2.5
Tuesday Good
OZONE
Wednesday Moderate
OZONE
Thursday Good
PM2.5
Friday Good
PM2.5
Saturday Good
PM2.5
Sunday Good
OZONE

Snow Depth

Station Depth Elevation
Blue Lakes 0 in 8000 ft
Forestdale Creek 0 in 8029 ft
Echo Peak 0 in 7800 ft
Rubicon #2 0 in 7500 ft
Leavitt Lake 0 in 9400 ft

Earthquake Activity

City Distance Mag. Time & Date
Cobb, California 93 miles 2.5 12:00 PM PDT
2014-09-02
Yountville, California 64 miles 2.6 1:15 PM PDT
2014-09-01
Gilroy, California 84 miles 3.4 9:10 AM PDT
2014-09-01
Green Valley, California 50 miles 2.5 6:37 AM PDT
2014-08-31
Minimum magnitude displayed is 2.5.

Coastal Water Temperatures

Place Temperature
San Francisco, CA 64.9 °F
Richmond, CA 68.0 °F
Port Chicago, CA 71.1 °F

Nearby Weather Stations